createdAt,value
2023-03-21T00:00:47.929Z,97853.28
2023-03-21T00:03:16.285Z,97842.41
2023-03-21T00:05:51.892Z,97851.56
2023-03-21T00:08:21.492Z,97846.00
2023-03-21T00:10:57.381Z,97847.84
2023-03-21T00:13:26.462Z,97846.91
2023-03-21T00:16:18.667Z,97844.59
2023-03-21T00:18:46.410Z,97836.19
2023-03-21T00:24:06.441Z,97838.22
2023-03-21T00:26:34.512Z,97835.38
2023-03-21T00:29:02.055Z,97835.84
2023-03-21T00:31:30.157Z,97833.81
2023-03-21T00:33:57.802Z,97824.09
2023-03-21T00:36:26.071Z,97821.44
2023-03-21T00:38:54.727Z,97814.44
2023-03-21T00:41:39.230Z,97817.94
2023-03-21T00:44:13.601Z,97813.22
2023-03-21T00:46:54.170Z,97809.56
2023-03-21T00:49:28.590Z,97810.94
2023-03-21T00:51:59.593Z,97806.94
2023-03-21T00:54:35.666Z,97799.25
2023-03-21T00:57:05.302Z,97799.81
2023-03-21T00:59:33.037Z,97796.66
2023-03-21T01:02:00.697Z,97803.47
2023-03-21T01:04:28.856Z,97796.94
2023-03-21T01:06:56.457Z,97798.44
2023-03-21T01:09:25.421Z,97797.41
2023-03-21T01:11:54.241Z,97790.03
2023-03-21T01:14:23.980Z,97787.34
2023-03-21T01:16:53.458Z,97783.22
2023-03-21T01:19:38.015Z,97780.53
2023-03-21T01:22:08.717Z,97775.81
2023-03-21T01:24:40.460Z,97777.03
2023-03-21T01:27:11.199Z,97781.34
2023-03-21T01:29:38.718Z,97777.19
2023-03-21T01:32:06.440Z,97778.03
2023-03-21T01:34:34.302Z,97780.53
2023-03-21T01:37:01.935Z,97781.53
2023-03-21T01:39:34.843Z,97779.88
2023-03-21T01:42:02.412Z,97779.06
2023-03-21T01:44:30.797Z,97780.69
2023-03-21T01:47:10.594Z,97780.06
2023-03-21T01:49:52.563Z,97780.44
2023-03-21T01:52:38.703Z,97781.13
2023-03-21T01:55:13.926Z,97774.94
2023-03-21T01:58:05.436Z,97779.47
2023-03-21T02:00:55.209Z,97773.47
2023-03-21T02:03:38.474Z,97769.94
2023-03-21T02:06:48.964Z,97771.03
2023-03-21T02:09:33.434Z,97764.00
2023-03-21T02:12:02.133Z,97768.53
2023-03-21T02:14:34.650Z,97761.50
2023-03-21T02:17:54.277Z,97758.88
2023-03-21T02:21:27.690Z,97759.25
2023-03-21T02:25:06.143Z,97754.59
2023-03-21T02:27:51.244Z,97757.91
2023-03-21T02:31:16.455Z,97738.91
2023-03-21T02:34:27.260Z,97745.63
2023-03-21T02:37:18.969Z,97744.13
2023-03-21T02:40:11.022Z,97743.47
2023-03-21T02:43:01.209Z,97740.13
2023-03-21T02:45:43.617Z,97739.31
2023-03-21T02:48:29.317Z,97742.28
2023-03-21T02:51:04.177Z,97736.78
2023-03-21T02:53:40.622Z,97733.97
2023-03-21T02:56:10.755Z,97736.94
2023-03-21T02:58:43.700Z,97733.44
2023-03-21T03:01:11.549Z,97736.13
2023-03-21T03:03:44.728Z,97729.78
2023-03-21T03:06:29.034Z,97734.94
2023-03-21T03:09:56.192Z,97734.94
2023-03-21T03:13:08.100Z,97733.41
2023-03-21T03:16:05.145Z,97739.63
2023-03-21T03:18:56.780Z,97727.78
2023-03-21T03:21:56.639Z,97727.78
2023-03-21T03:24:36.836Z,97724.94
2023-03-21T03:27:17.642Z,97728.59
2023-03-21T03:29:48.722Z,97730.59
2023-03-21T03:32:35.469Z,97734.47
2023-03-21T03:35:06.858Z,97734.47
2023-03-21T03:37:37.311Z,97730.75
2023-03-21T03:40:18.226Z,97724.75
2023-03-21T03:43:03.045Z,97723.28
2023-03-21T03:45:43.979Z,97721.59
2023-03-21T03:48:34.086Z,97726.31
2023-03-21T03:51:10.395Z,97719.09
2023-03-21T03:54:07.685Z,97713.75
2023-03-21T03:56:36.383Z,97722.97
2023-03-21T03:59:07.541Z,97715.31
2023-03-21T04:01:53.691Z,97718.34
2023-03-21T04:04:22.977Z,97712.16
2023-03-21T04:06:53.405Z,97716.31
2023-03-21T04:09:37.212Z,97714.34
2023-03-21T04:12:10.777Z,97712.00
2023-03-21T04:14:45.694Z,97716.03
2023-03-21T04:17:16.037Z,97703.06
2023-03-21T04:19:43.628Z,97709.28
2023-03-21T04:22:12.564Z,97709.28
2023-03-21T04:24:44.047Z,97715.81
2023-03-21T04:27:11.619Z,97715.31
2023-03-21T04:29:42.083Z,97715.19
2023-03-21T04:32:42.609Z,97700.53
2023-03-21T04:35:15.357Z,97700.84
2023-03-21T04:37:42.873Z,97701.03
2023-03-21T04:40:17.614Z,97707.03
2023-03-21T04:42:47.744Z,97703.00
2023-03-21T04:45:17.466Z,97703.50
2023-03-21T04:47:46.590Z,97705.16
2023-03-21T04:50:15.797Z,97692.16
2023-03-21T04:52:44.302Z,97696.84
2023-03-21T04:55:11.891Z,97686.31
2023-03-21T04:57:40.295Z,97688.66
2023-03-21T05:00:13.092Z,97689.97
2023-03-21T05:02:41.032Z,97689.47
2023-03-21T05:05:11.325Z,97700.00
2023-03-21T05:07:41.157Z,97694.13
2023-03-21T05:10:12.257Z,97705.28
2023-03-21T05:12:42.672Z,97698.47
2023-03-21T05:15:10.653Z,97697.00
2023-03-21T05:17:38.493Z,97703.00
2023-03-21T05:20:09.255Z,97709.97
2023-03-21T05:22:40.270Z,97698.63
2023-03-21T05:25:11.668Z,97708.66
2023-03-21T05:28:04.742Z,97698.84
2023-03-21T05:30:33.524Z,97699.72
2023-03-21T05:33:02.738Z,97694.91
2023-03-21T05:35:31.376Z,97698.56
2023-03-21T05:38:02.032Z,97700.56
2023-03-21T05:40:33.174Z,97699.75
2023-03-21T05:43:01.023Z,97703.06
2023-03-21T05:45:28.588Z,97706.72
2023-03-21T05:47:56.626Z,97705.75
2023-03-21T05:50:29.357Z,97707.38
2023-03-21T05:53:17.469Z,97703.06
2023-03-21T05:55:45.594Z,97704.25
2023-03-21T05:58:24.568Z,97704.91
2023-03-21T06:00:52.593Z,97703.91
2023-03-21T06:03:27.652Z,97707.75
2023-03-21T06:06:03.598Z,97705.56
2023-03-21T06:08:37.156Z,97711.94
2023-03-21T06:11:20.204Z,97708.44
2023-03-21T06:13:48.146Z,97712.44
2023-03-21T06:16:15.812Z,97708.09
2023-03-21T06:18:43.977Z,97709.25
2023-03-21T06:21:26.359Z,97707.78
2023-03-21T06:23:54.325Z,97715.59
2023-03-21T06:26:23.253Z,97707.78
2023-03-21T06:28:54.034Z,97705.78
2023-03-21T06:31:22.690Z,97701.25
2023-03-21T06:33:52.126Z,97705.41
2023-03-21T06:36:20.194Z,97701.91
2023-03-21T06:38:48.602Z,97704.06
2023-03-21T06:41:16.949Z,97699.56
2023-03-21T06:43:52.067Z,97703.72
2023-03-21T06:46:20.379Z,97693.88
2023-03-21T06:48:48.495Z,97695.84
2023-03-21T06:51:16.656Z,97698.84
2023-03-21T06:53:57.428Z,97694.50
2023-03-21T06:56:30.749Z,97695.28
2023-03-21T06:58:58.596Z,97699.09
2023-03-21T07:01:45.484Z,97694.56
2023-03-21T07:04:13.789Z,97696.34
2023-03-21T07:06:42.406Z,97694.63
2023-03-21T07:09:10.038Z,97705.44
2023-03-21T07:11:38.689Z,97699.56
2023-03-21T07:14:06.893Z,97696.84
2023-03-21T07:16:34.780Z,97701.53
2023-03-21T07:19:02.341Z,97699.13
2023-03-21T07:21:29.895Z,97703.13
2023-03-21T07:23:57.497Z,97698.06
2023-03-21T07:26:25.048Z,97705.38
2023-03-21T07:28:52.553Z,97700.50
2023-03-21T07:31:20.229Z,97702.47
2023-03-21T07:33:49.211Z,97705.97
2023-03-21T07:36:16.887Z,97710.31
2023-03-21T07:38:46.254Z,97707.81
2023-03-21T07:43:46.719Z,97707.09
2023-03-21T07:46:14.384Z,97707.94
2023-03-21T07:48:41.904Z,97704.25
2023-03-21T07:51:09.665Z,97704.25
2023-03-21T07:53:37.366Z,97695.00
2023-03-21T07:56:05.659Z,97699.84
2023-03-21T07:58:34.305Z,97704.47
2023-03-21T08:01:02.324Z,97702.28
2023-03-21T08:03:31.379Z,97699.91
2023-03-21T08:06:02.057Z,97697.31
2023-03-21T08:08:29.756Z,97703.97
2023-03-21T08:10:57.461Z,97705.09
2023-03-21T08:13:26.037Z,97699.81
2023-03-21T08:15:53.837Z,97690.44
2023-03-21T08:18:21.489Z,97696.22
2023-03-21T08:20:57.060Z,97688.66
2023-03-21T08:23:25.896Z,97688.31
2023-03-21T08:25:54.937Z,97690.41
2023-03-21T08:28:23.647Z,97692.34
2023-03-21T08:30:51.334Z,97690.16
2023-03-21T08:33:19.274Z,97693.28
2023-03-21T08:35:47.281Z,97688.56
2023-03-21T08:38:14.840Z,97680.19
2023-03-21T08:40:42.478Z,97682.88
2023-03-21T08:43:10.232Z,97691.00
2023-03-21T08:45:38.137Z,97684.06
2023-03-21T08:48:06.429Z,97677.78
2023-03-21T08:50:33.967Z,97674.53
2023-03-21T08:53:01.522Z,97671.94
2023-03-21T08:55:29.090Z,97672.22
2023-03-21T08:57:57.999Z,97668.97
2023-03-21T09:00:25.952Z,97672.56
2023-03-21T09:02:54.499Z,97669.78
2023-03-21T09:05:25.446Z,97675.00
2023-03-21T09:07:53.539Z,97668.25
2023-03-21T09:10:23.298Z,97668.78
2023-03-21T09:12:53.720Z,97669.28
2023-03-21T09:15:24.925Z,97669.97
2023-03-21T09:17:54.027Z,97666.97
2023-03-21T09:20:30.908Z,97668.69
2023-03-21T09:22:59.862Z,97667.75
2023-03-21T09:25:30.938Z,97670.31
2023-03-21T09:28:00.499Z,97663.75
2023-03-21T09:30:29.339Z,97661.59
2023-03-21T09:32:56.926Z,97664.75
2023-03-21T09:35:24.808Z,97669.13
2023-03-21T09:37:52.853Z,97665.28
2023-03-21T09:41:16.519Z,97668.63
2023-03-21T09:44:13.960Z,97668.44
2023-03-21T09:47:20.674Z,97667.25
2023-03-21T09:50:13.153Z,97662.72
2023-03-21T09:53:38.943Z,97669.59
2023-03-21T09:56:12.476Z,97662.44
2023-03-21T09:58:55.236Z,97660.41
2023-03-21T10:01:34.404Z,97654.44
2023-03-21T10:04:07.989Z,97653.41
2023-03-21T10:06:41.126Z,97654.72
2023-03-21T10:09:24.315Z,97646.25
2023-03-21T10:12:14.838Z,97648.13
2023-03-21T10:14:51.768Z,97635.94
2023-03-21T10:17:40.902Z,97634.69
2023-03-21T10:20:21.697Z,97633.66
2023-03-21T10:22:53.985Z,97641.75
2023-03-21T10:25:54.026Z,97631.59
2023-03-21T10:28:26.729Z,97635.94
2023-03-21T10:31:07.230Z,97623.53
2023-03-21T10:33:39.692Z,97622.09
2023-03-21T10:36:25.827Z,97622.69
2023-03-21T10:39:04.997Z,97621.03
2023-03-21T10:41:34.159Z,97617.09
2023-03-21T10:44:14.653Z,97622.47
2023-03-21T10:46:57.814Z,97621.84
2023-03-21T10:49:26.669Z,97620.03
2023-03-21T10:51:59.291Z,97619.59
2023-03-21T10:54:31.157Z,97620.81
2023-03-21T10:57:23.111Z,97620.22
2023-03-21T10:59:58.147Z,97615.69
2023-03-21T11:02:33.714Z,97616.72
2023-03-21T11:05:37.376Z,97611.31
2023-03-21T11:08:12.146Z,97612.56
2023-03-21T11:11:08.662Z,97609.44
2023-03-21T11:13:44.731Z,97611.91
2023-03-21T11:16:22.679Z,97611.69
2023-03-21T11:18:56.450Z,97611.25
2023-03-21T11:21:29.787Z,97607.09
2023-03-21T11:23:57.637Z,97605.28
2023-03-21T11:26:36.797Z,97609.44
2023-03-21T11:29:32.858Z,97600.72
2023-03-21T11:32:12.647Z,97604.88
2023-03-21T11:35:00.342Z,97597.22
2023-03-21T11:37:57.049Z,97596.59
2023-03-21T11:40:34.113Z,97586.66
2023-03-21T11:43:23.109Z,97592.66
2023-03-21T11:46:10.415Z,97583.34
2023-03-21T11:48:46.919Z,97582.50
2023-03-21T11:51:29.439Z,97576.06
2023-03-21T11:54:10.755Z,97575.47
2023-03-21T11:56:59.355Z,97570.06
2023-03-21T11:59:49.416Z,97572.75
2023-03-21T12:02:42.940Z,97565.31
2023-03-21T12:05:46.224Z,97564.47
2023-03-21T12:08:40.202Z,97566.13
2023-03-21T12:11:43.253Z,97556.59
2023-03-21T12:14:34.644Z,97546.84
2023-03-21T12:17:47.593Z,97553.50
2023-03-21T12:20:35.132Z,97547.25
2023-03-21T12:23:45.554Z,97541.22
2023-03-21T12:26:42.207Z,97536.03
2023-03-21T12:29:18.842Z,97531.47
2023-03-21T12:32:11.018Z,97525.22
2023-03-21T12:35:06.763Z,97521.06
2023-03-21T12:38:01.886Z,97527.47
2023-03-21T12:41:08.078Z,97521.22
2023-03-21T12:44:01.428Z,97524.50
2023-03-21T12:46:42.790Z,97521.34
2023-03-21T12:49:26.497Z,97519.59
2023-03-21T12:52:34.669Z,97513.78
2023-03-21T12:55:21.385Z,97511.47
2023-03-21T12:58:06.182Z,97515.09
2023-03-21T13:00:56.968Z,97514.06
2023-03-21T13:03:54.314Z,97510.28
2023-03-21T13:06:24.872Z,97508.59
2023-03-21T13:09:36.711Z,97510.44
2023-03-21T13:13:02.614Z,97504.34
2023-03-21T13:15:42.089Z,97507.75
2023-03-21T13:18:12.456Z,97508.03
2023-03-21T13:20:47.560Z,97502.69
2023-03-21T13:23:15.352Z,97499.00
2023-03-21T13:25:48.108Z,97495.91
2023-03-21T13:28:27.482Z,97497.41
2023-03-21T13:31:24.858Z,97506.09
2023-03-21T13:33:58.586Z,97508.06
2023-03-21T13:36:31.131Z,97502.09
2023-03-21T13:39:06.790Z,97502.94
2023-03-21T13:41:47.134Z,97497.44
2023-03-21T13:44:48.966Z,97490.81
2023-03-21T13:47:50.843Z,97480.44
2023-03-21T13:50:18.270Z,97466.81
2023-03-21T13:53:11.107Z,97464.16
2023-03-21T13:55:45.932Z,97468.06
2023-03-21T13:58:49.724Z,97460.56
2023-03-21T14:01:38.400Z,97447.84
2023-03-21T14:04:15.531Z,97451.56
2023-03-21T14:07:05.835Z,97445.94
2023-03-21T14:09:46.128Z,97449.03
2023-03-21T14:12:36.626Z,97447.75
2023-03-21T14:15:17.795Z,97444.25
2023-03-21T14:17:55.400Z,97441.34
2023-03-21T14:20:30.680Z,97443.22
2023-03-21T14:22:58.509Z,97447.94
2023-03-21T14:25:41.033Z,97443.63
2023-03-21T14:28:28.734Z,97438.44
2023-03-21T14:31:02.163Z,97447.94
2023-03-21T14:33:39.381Z,97452.31
2023-03-21T14:36:35.215Z,97448.16
2023-03-21T14:39:24.002Z,97447.72
2023-03-21T14:41:55.522Z,97447.28
2023-03-21T14:44:26.505Z,97448.84
2023-03-21T14:47:06.126Z,97433.81
2023-03-21T14:49:36.786Z,97445.19
2023-03-21T14:52:20.558Z,97442.91
2023-03-21T14:54:49.301Z,97444.75
2023-03-21T14:57:37.704Z,97445.00
2023-03-21T15:00:14.445Z,97439.66
2023-03-21T15:02:44.618Z,97437.59
2023-03-21T15:05:22.001Z,97428.84
2023-03-21T15:07:57.400Z,97434.09
2023-03-21T15:10:28.323Z,97438.72
2023-03-21T15:13:00.267Z,97425.78
2023-03-21T15:15:29.948Z,97427.63
2023-03-21T15:18:08.273Z,97425.72
2023-03-21T15:20:38.357Z,97433.25
2023-03-21T15:23:29.850Z,97426.19
2023-03-21T15:25:58.484Z,97425.00
2023-03-21T15:28:26.291Z,97433.19
2023-03-21T15:30:54.761Z,97431.09
2023-03-21T15:33:25.436Z,97423.25
2023-03-21T15:35:58.136Z,97428.47
2023-03-21T15:38:44.898Z,97424.88
2023-03-21T15:41:28.783Z,97429.19
2023-03-21T15:44:02.545Z,97437.44
2023-03-21T15:46:41.368Z,97427.53
2023-03-21T15:49:15.007Z,97427.63
2023-03-21T15:52:04.421Z,97424.53
2023-03-21T15:54:43.416Z,97426.81
2023-03-21T15:57:38.025Z,97427.22
2023-03-21T16:00:19.696Z,97425.13
2023-03-21T16:02:53.335Z,97425.38
2023-03-21T16:05:28.446Z,97429.09
2023-03-21T16:08:20.573Z,97437.69
2023-03-21T16:10:49.040Z,97434.19
2023-03-21T16:13:17.533Z,97432.16
2023-03-21T16:15:46.875Z,97429.00
2023-03-21T16:18:17.357Z,97418.03
2023-03-21T16:20:46.751Z,97415.38
2023-03-21T16:23:15.807Z,97417.00
2023-03-21T16:25:44.561Z,97416.41
2023-03-21T16:28:17.138Z,97414.34
2023-03-21T16:30:45.409Z,97421.78
2023-03-21T16:33:13.766Z,97416.81
2023-03-21T16:35:41.480Z,97419.28
2023-03-21T16:38:12.350Z,97421.19
2023-03-21T16:40:43.515Z,97421.81
2023-03-21T16:43:11.672Z,97425.13
2023-03-21T16:45:39.337Z,97427.41
2023-03-21T16:48:08.724Z,97420.78
2023-03-21T16:50:42.416Z,97417.44
2023-03-21T16:53:10.173Z,97424.28
2023-03-21T16:55:38.770Z,97424.28
2023-03-21T16:58:06.528Z,97434.00
2023-03-21T17:00:37.566Z,97430.69
2023-03-21T17:03:18.085Z,97426.56
2023-03-21T17:05:46.198Z,97431.34
2023-03-21T17:08:17.070Z,97431.75
2023-03-21T17:10:45.944Z,97428.44
2023-03-21T17:13:13.522Z,97429.69
2023-03-21T17:15:42.085Z,97432.81
2023-03-21T17:18:11.866Z,97422.47
2023-03-21T17:20:41.403Z,97428.06
2023-03-21T17:23:10.368Z,97424.97
2023-03-21T17:25:38.136Z,97437.59
2023-03-21T17:28:05.693Z,97445.88
2023-03-21T17:30:36.780Z,97433.88
2023-03-21T17:33:04.461Z,97435.34
2023-03-21T17:35:32.249Z,97440.72
2023-03-21T17:37:59.777Z,97432.88
2023-03-21T17:40:32.159Z,97441.13
2023-03-21T17:43:01.289Z,97436.16
2023-03-21T17:45:29.654Z,97436.41
2023-03-21T17:47:57.334Z,97439.28
2023-03-21T17:50:27.531Z,97443.22
2023-03-21T17:52:57.739Z,97449.63
2023-03-21T17:55:26.139Z,97451.72
2023-03-21T17:57:53.903Z,97444.28
2023-03-21T18:00:28.332Z,97451.94
2023-03-21T18:02:56.554Z,97441.56
2023-03-21T18:05:25.508Z,97445.31
2023-03-21T18:08:09.870Z,97449.03
2023-03-21T18:10:40.027Z,97449.03
2023-03-21T18:13:07.822Z,97438.47
2023-03-21T18:15:38.053Z,97440.53
2023-03-21T18:18:06.044Z,97432.50
2023-03-21T18:23:21.920Z,97426.91
2023-03-21T18:25:52.202Z,97427.50
2023-03-21T18:28:21.485Z,97424.81
2023-03-21T18:33:41.324Z,97440.97
2023-03-21T18:36:10.329Z,97447.97
2023-03-21T18:38:38.214Z,97456.22
2023-03-21T18:41:07.815Z,97459.75
2023-03-21T18:46:24.859Z,97461.59
2023-03-21T18:48:52.664Z,97443.19
2023-03-21T18:51:20.324Z,97446.28
2023-03-21T18:53:47.833Z,97460.97
2023-03-21T18:56:57.772Z,97455.59
2023-03-21T18:59:04.951Z,97450.84
2023-03-21T19:01:32.783Z,97429.34
2023-03-21T19:06:50.078Z,97440.50
2023-03-21T19:09:18.643Z,97441.56
2023-03-21T19:11:47.119Z,97453.50
2023-03-21T19:14:16.927Z,97462.41
2023-03-21T19:17:18.318Z,97464.69
2023-03-21T19:19:33.672Z,97453.94
2023-03-21T19:22:01.657Z,97451.03
2023-03-21T19:24:29.665Z,97450.59
2023-03-21T19:26:57.541Z,97458.03
2023-03-21T19:29:25.717Z,97457.03
2023-03-21T19:31:53.508Z,97456.41
2023-03-21T19:34:21.175Z,97445.44
2023-03-21T19:36:52.024Z,97446.44
2023-03-21T19:39:22.598Z,97433.25
2023-03-21T19:41:55.254Z,97436.75
2023-03-21T19:44:29.706Z,97438.59
2023-03-21T19:46:57.220Z,97441.50
2023-03-21T19:49:34.725Z,97439.00
2023-03-21T19:52:13.350Z,97432.38
2023-03-21T19:54:40.946Z,97431.75
2023-03-21T19:57:09.758Z,97439.19
2023-03-21T19:59:37.703Z,97427.00
2023-03-21T20:02:31.190Z,97432.19
2023-03-21T20:04:53.534Z,97431.75
2023-03-21T20:07:21.028Z,97429.03
2023-03-21T20:09:52.843Z,97434.22
2023-03-21T20:12:22.983Z,97435.22
2023-03-21T20:14:55.989Z,97436.66
2023-03-21T20:17:32.897Z,97444.28
2023-03-21T20:20:01.032Z,97440.97
2023-03-21T20:22:58.859Z,97446.53
2023-03-21T20:25:16.715Z,97445.53
2023-03-21T20:27:44.945Z,97446.78
2023-03-21T20:30:18.857Z,97438.91
2023-03-21T20:32:47.014Z,97445.28
2023-03-21T20:35:29.507Z,97448.84
2023-03-21T20:38:05.289Z,97459.34
2023-03-21T20:40:32.794Z,97453.53
2023-03-21T20:43:28.437Z,97456.22
2023-03-21T20:45:49.107Z,97461.41
2023-03-21T20:48:16.970Z,97467.63
2023-03-21T20:50:44.868Z,97463.06
2023-03-21T20:53:12.647Z,97469.25
2023-03-21T20:55:40.366Z,97464.72
2023-03-21T20:58:30.044Z,97455.03
2023-03-21T21:00:59.575Z,97468.66
2023-03-21T21:03:27.164Z,97466.19
2023-03-21T21:05:54.905Z,97456.66
2023-03-21T21:08:22.396Z,97454.19
2023-03-21T21:11:32.682Z,97456.44
2023-03-21T21:13:37.876Z,97454.16
2023-03-21T21:16:07.650Z,97449.41
2023-03-21T21:18:36.573Z,97452.28
2023-03-21T21:21:06.883Z,97443.59
2023-03-21T21:23:39.723Z,97446.28
2023-03-21T21:26:09.147Z,97454.13
2023-03-21T21:28:38.322Z,97446.91
2023-03-21T21:31:19.840Z,97449.41
2023-03-21T21:33:50.067Z,97450.22
2023-03-21T21:36:17.727Z,97450.22
2023-03-21T21:38:46.291Z,97451.03
2023-03-21T21:41:25.196Z,97447.16
2023-03-21T21:43:52.732Z,97446.09
2023-03-21T21:46:20.296Z,97451.03
2023-03-21T21:48:48.835Z,97445.03
2023-03-21T21:51:26.083Z,97444.41
2023-03-21T21:53:55.895Z,97445.66
2023-03-21T21:56:25.895Z,97437.78
2023-03-21T21:58:54.466Z,97444.19
2023-03-21T22:01:21.981Z,97442.28
2023-03-21T22:03:51.591Z,97446.16
2023-03-21T22:06:19.108Z,97449.63
2023-03-21T22:08:47.061Z,97448.97
2023-03-21T22:11:15.910Z,97444.78
2023-03-21T22:13:43.619Z,97442.50
2023-03-21T22:16:11.780Z,97446.38
2023-03-21T22:18:39.342Z,97454.63
2023-03-21T22:21:07.362Z,97454.00
2023-03-21T22:23:35.199Z,97453.78
2023-03-21T22:26:02.819Z,97455.19
2023-03-21T22:28:34.343Z,97454.75
2023-03-21T22:31:10.276Z,97460.28
2023-03-21T22:33:38.041Z,97459.84
2023-03-21T22:36:06.893Z,97460.63
2023-03-21T22:38:34.757Z,97462.69
2023-03-21T22:41:05.398Z,97462.06
2023-03-21T22:43:34.260Z,97462.06
2023-03-21T22:46:03.847Z,97463.91
2023-03-21T22:48:31.871Z,97466.38
2023-03-21T22:51:00.439Z,97459.13
2023-03-21T22:53:28.338Z,97456.38
2023-03-21T22:55:56.420Z,97454.09
2023-03-21T22:58:24.378Z,97460.25
2023-03-21T23:00:52.074Z,97466.66
2023-03-21T23:03:19.833Z,97466.03
2023-03-21T23:05:47.336Z,97465.00
2023-03-21T23:08:14.885Z,97464.34
2023-03-21T23:10:44.102Z,97460.22
2023-03-21T23:13:12.143Z,97458.56
2023-03-21T23:15:39.884Z,97453.16
2023-03-21T23:18:07.458Z,97451.25
2023-03-21T23:20:35.329Z,97454.69
2023-03-21T23:23:03.107Z,97457.28
2023-03-21T23:25:30.752Z,97454.13
2023-03-21T23:27:58.266Z,97458.41
2023-03-21T23:30:26.354Z,97452.16
2023-03-21T23:32:53.965Z,97463.88
2023-03-21T23:35:21.520Z,97450.50
2023-03-21T23:37:52.499Z,97451.31
2023-03-21T23:40:21.256Z,97449.66
2023-03-21T23:42:48.836Z,97448.22
2023-03-21T23:45:16.428Z,97450.03
2023-03-21T23:47:44.224Z,97446.72
2023-03-21T23:50:11.845Z,97444.69
2023-03-21T23:52:41.586Z,97441.56
2023-03-21T23:55:09.773Z,97439.72
2023-03-21T23:57:41.789Z,97441.38
